Time;durP1;ratioP1;P1;durP2;ratioP2;P2;SDS_P1;SDS_P2;PMS_P1;PMS_P2;Temp;Humidity;BMP_temperature;BMP_pressure;BME280_temperature;BME280_humidity;BME280_pressure;Samples;Min_cycle;Max_cycle;Signal;HPM_P1;HPM_P2
2021/04/28 00:00:12;;;;;;;1999.90;999.90;;;;;;;10.07;91.10;95157.03;5070549;28;20234;-62
2021/04/28 00:02:40;;;;;;;1999.90;999.90;;;;;;;10.00;91.51;95148.91;5070538;28;20197;-61
2021/04/28 00:05:10;;;;;;;1999.90;999.90;;;;;;;10.04;91.88;95156.88;5070766;28;20228;-61
2021/04/28 00:10:59;;;;;;;1999.90;999.90;;;;;;;10.00;92.26;95159.28;5070411;28;20736;-62
2021/04/28 00:13:26;;;;;;;1999.90;999.90;;;;;;;9.85;92.51;95162.25;5070003;28;20772;-62
2021/04/28 00:15:54;;;;;;;1999.90;999.90;;;;;;;9.57;92.95;95166.78;5070258;28;20690;-61
2021/04/28 00:18:21;;;;;;;1999.90;999.90;;;;;;;9.37;92.73;95157.63;5070154;28;20675;-61
2021/04/28 00:20:49;;;;;;;1999.90;999.90;;;;;;;9.35;93.36;95154.56;5070046;28;20228;-62
2021/04/28 00:23:16;;;;;;;1999.90;999.90;;;;;;;9.23;94.29;95151.72;5070132;28;20610;-62
2021/04/28 00:25:43;;;;;;;1999.90;999.90;;;;;;;9.21;94.32;95148.66;5070491;28;20211;-62
2021/04/28 00:28:11;;;;;;;1999.90;999.90;;;;;;;9.18;95.58;95153.66;5070098;28;20614;-61
2021/04/28 00:30:38;;;;;;;1999.90;999.90;;;;;;;9.20;95.65;95151.53;5070324;28;20735;-62
2021/04/28 00:33:07;;;;;;;1999.90;999.90;;;;;;;9.42;96.28;95159.34;5069315;28;20201;-63
2021/04/28 00:35:34;;;;;;;1999.90;999.90;;;;;;;9.29;96.48;95154.97;5070444;28;20200;-63
2021/04/28 00:38:01;;;;;;;1999.90;999.90;;;;;;;9.21;96.55;95156.44;5070034;28;20656;-62
2021/04/28 00:40:30;;;;;;;1999.90;999.90;;;;;;;9.20;97.25;95162.69;5070069;28;20242;-62
2021/04/28 00:42:58;;;;;;;1999.90;999.90;;;;;;;8.99;97.33;95164.16;5069870;28;20288;-61
2021/04/28 00:45:25;;;;;;;1999.90;999.90;;;;;;;9.00;97.79;95168.28;5069892;28;20219;-61
2021/04/28 00:47:52;;;;;;;1999.90;999.90;;;;;;;8.93;98.06;95171.28;5070208;28;20218;-62
2021/04/28 00:50:24;;;;;;;1999.90;999.90;;;;;;;8.98;98.35;95175.59;5070060;28;20235;-63
2021/04/28 00:52:51;;;;;;;1999.90;999.90;;;;;;;8.89;98.02;95172.13;5069988;28;20232;-61
2021/04/28 00:55:19;;;;;;;1999.90;999.90;;;;;;;8.90;99.04;95173.69;5069796;28;20194;-61
2021/04/28 00:57:46;;;;;;;1999.90;999.90;;;;;;;8.93;98.26;95163.50;5069874;28;20185;-62
2021/04/28 01:00:15;;;;;;;1999.90;999.90;;;;;;;8.98;98.58;95163.41;5069750;28;20323;-61
2021/04/28 01:02:43;;;;;;;1999.90;999.90;;;;;;;9.01;99.17;95167.25;5069725;28;20242;-61
2021/04/28 01:05:12;;;;;;;1999.90;999.90;;;;;;;9.02;99.82;95160.97;5069854;28;20649;-61
2021/04/28 01:07:41;;;;;;;1999.90;999.90;;;;;;;8.92;100.00;95163.78;5069847;28;20243;-61
2021/04/28 01:10:11;;;;;;;1999.90;999.90;;;;;;;8.92;100.00;95161.97;5069962;28;20261;-62
2021/04/28 01:12:39;;;;;;;1999.90;999.90;;;;;;;8.93;100.00;95165.31;5069240;28;20236;-62
2021/04/28 01:15:09;;;;;;;1999.90;999.90;;;;;;;8.98;100.00;95162.63;5070135;28;20655;-62
2021/04/28 01:17:37;;;;;;;1999.90;999.90;;;;;;;8.88;100.00;95165.41;5069637;28;20192;-63
2021/04/28 01:20:05;;;;;;;1999.90;999.90;;;;;;;8.91;100.00;95154.50;5069362;28;20734;-61
2021/04/28 01:22:37;;;;;;;1999.90;999.90;;;;;;;8.87;100.00;95154.28;5069476;28;20283;-62
2021/04/28 01:25:06;;;;;;;1999.90;999.90;;;;;;;8.93;100.00;95155.72;5069911;28;20675;-62
2021/04/28 01:27:35;;;;;;;1999.90;999.90;;;;;;;8.64;100.00;95166.41;5069894;28;20211;-60
2021/04/28 01:30:03;;;;;;;1999.90;999.90;;;;;;;8.70;100.00;95169.66;5069732;28;20207;-62
2021/04/28 01:32:31;;;;;;;1999.90;999.90;;;;;;;8.65;100.00;95164.59;5069451;28;20265;-61
2021/04/28 01:35:00;;;;;;;1999.90;999.90;;;;;;;8.63;100.00;95159.69;5069505;28;20201;-61
2021/04/28 01:37:28;;;;;;;1999.90;999.90;;;;;;;8.64;100.00;95161.22;5070060;28;20232;-62
2021/04/28 01:39:58;;;;;;;1999.90;999.90;;;;;;;8.70;100.00;95163.72;5069436;28;20309;-62
2021/04/28 01:42:26;;;;;;;1999.90;999.90;;;;;;;8.72;100.00;95156.44;5069353;28;20311;-62
2021/04/28 01:44:55;;;;;;;1999.90;999.90;;;;;;;8.67;100.00;95166.91;5071258;28;20196;-61
2021/04/28 01:47:22;;;;;;;1999.90;999.90;;;;;;;8.43;100.00;95154.88;5073110;28;20292;-61
2021/04/28 01:49:51;;;;;;;1999.90;999.90;;;;;;;8.45;100.00;95157.97;5072963;28;20232;-61
2021/04/28 01:52:19;;;;;;;1999.90;999.90;;;;;;;8.46;100.00;95151.75;5072916;28;20556;-62
2021/04/28 01:54:47;;;;;;;1999.90;999.90;;;;;;;8.57;100.00;95149.69;5072812;28;20204;-61
2021/04/28 01:57:16;;;;;;;1999.90;999.90;;;;;;;8.68;100.00;95155.47;5073210;28;20671;-61
2021/04/28 01:59:44;;;;;;;1999.90;999.90;;;;;;;8.81;100.00;95152.09;5073050;28;20228;-62
2021/04/28 02:02:11;;;;;;;1999.90;999.90;;;;;;;8.84;100.00;95152.28;5072621;28;20206;-61
2021/04/28 02:04:39;;;;;;;1999.90;999.90;;;;;;;8.92;100.00;95163.78;5072540;28;20603;-61
2021/04/28 02:07:06;;;;;;;1999.90;999.90;;;;;;;8.99;100.00;95164.16;5072508;28;20648;-61
2021/04/28 02:09:33;;;;;;;1999.90;999.90;;;;;;;9.07;100.00;95161.66;5072533;28;20231;-62
2021/04/28 02:12:01;;;;;;;1999.90;999.90;;;;;;;9.19;100.00;95158.56;5072519;28;20212;-61
2021/04/28 02:14:31;;;;;;;1999.90;999.90;;;;;;;9.21;100.00;95159.03;5072148;28;20225;-62
2021/04/28 02:16:59;;;;;;;1999.90;999.90;;;;;;;9.24;100.00;95158.44;5072686;28;20257;-62
2021/04/28 02:19:27;;;;;;;1999.90;999.90;;;;;;;9.34;99.90;95160.06;5072193;28;20256;-60
2021/04/28 02:21:54;;;;;;;1999.90;999.90;;;;;;;9.39;99.44;95159.94;5072605;28;20269;-60
2021/04/28 02:24:21;;;;;;;1999.90;999.90;;;;;;;9.38;98.82;95164.34;5072719;28;20274;-60
2021/04/28 02:26:56;;;;;;;1999.90;999.90;;;;;;;9.47;98.33;95164.41;5072587;28;20200;-62
2021/04/28 02:29:22;;;;;;;1999.90;999.90;;;;;;;9.55;98.45;95157.78;5072339;28;20192;-61
2021/04/28 02:31:50;;;;;;;1999.90;999.90;;;;;;;9.63;97.99;95151.88;5072250;28;20287;-60
2021/04/28 02:34:17;;;;;;;1999.90;999.90;;;;;;;9.69;97.22;95148.88;5072431;28;20283;-61
2021/04/28 02:36:48;;;;;;;1999.90;999.90;;;;;;;9.79;96.68;95158.25;5072053;28;20203;-60
2021/04/28 02:39:21;;;;;;;1999.90;999.90;;;;;;;9.80;96.42;95152.75;5071970;28;20281;-61
2021/04/28 02:41:48;;;;;;;1999.90;999.90;;;;;;;9.84;95.91;95150.34;5072124;28;20196;-61
2021/04/28 02:44:18;;;;;;;1999.90;999.90;;;;;;;9.83;96.18;95149.56;5072124;28;20224;-61
2021/04/28 02:46:47;;;;;;;1999.90;999.90;;;;;;;9.85;95.50;95149.28;5071973;28;20199;-60
2021/04/28 02:49:15;;;;;;;1999.90;999.90;;;;;;;9.87;96.20;95149.72;5071865;28;20192;-61
2021/04/28 02:51:47;;;;;;;1999.90;999.90;;;;;;;9.90;95.37;95162.13;5072061;28;20196;-61
2021/04/28 02:54:16;;;;;;;1999.90;999.90;;;;;;;9.83;95.30;95152.16;5071821;28;20196;-61
2021/04/28 02:56:44;;;;;;;1999.90;999.90;;;;;;;9.87;95.54;95166.06;5071069;28;20197;-59
2021/04/28 02:59:12;;;;;;;1999.90;999.90;;;;;;;10.02;94.48;95167.53;5072074;28;20605;-61
2021/04/28 03:01:41;;;;;;;1999.90;999.90;;;;;;;10.14;94.08;95161.81;5071821;28;20196;-61
2021/04/28 03:04:09;;;;;;;1999.90;999.90;;;;;;;10.10;93.96;95166.84;5071544;28;20197;-60
2021/04/28 03:06:37;;;;;;;1999.90;999.90;;;;;;;10.22;92.81;95167.06;5071636;28;20215;-60
2021/04/28 03:09:05;;;;;;;1999.90;999.90;;;;;;;10.34;92.69;95174.31;5071977;28;20192;-60
2021/04/28 03:11:33;;;;;;;1999.90;999.90;;;;;;;10.39;91.92;95170.81;5071230;28;20227;-61
2021/04/28 03:14:01;;;;;;;1999.90;999.90;;;;;;;10.36;90.95;95175.53;5071018;28;20597;-60
2021/04/28 03:16:29;;;;;;;1999.90;999.90;;;;;;;10.17;91.42;95177.56;5071335;28;20197;-60
2021/04/28 03:18:56;;;;;;;1999.90;999.90;;;;;;;9.85;93.01;95188.22;5071482;28;20207;-60
2021/04/28 03:21:26;;;;;;;1999.90;999.90;;;;;;;9.68;93.41;95188.84;5071268;28;20284;-63
2021/04/28 03:23:53;;;;;;;1999.90;999.90;;;;;;;9.47;92.88;95190.34;5071083;28;20283;-61
2021/04/28 03:26:20;;;;;;;1999.90;999.90;;;;;;;9.26;93.37;95199.66;5070977;28;20284;-60
2021/04/28 03:28:47;;;;;;;1999.90;999.90;;;;;;;9.15;93.46;95201.69;5071300;28;20196;-61
2021/04/28 03:31:14;;;;;;;1999.90;999.90;;;;;;;9.04;94.36;95202.94;5071097;28;20685;-61
2021/04/28 03:33:41;;;;;;;1999.90;999.90;;;;;;;9.00;94.95;95209.75;5071269;28;20200;-61
2021/04/28 03:36:08;;;;;;;1999.90;999.90;;;;;;;9.00;95.15;95207.94;5071075;28;20196;-63
2021/04/28 03:38:35;;;;;;;1999.90;999.90;;;;;;;8.96;96.15;95208.81;5070862;28;20198;-61
2021/04/28 03:41:03;;;;;;;1999.90;999.90;;;;;;;8.89;96.51;95214.38;5070845;28;20242;-60
2021/04/28 03:43:30;;;;;;;1999.90;999.90;;;;;;;8.92;97.22;95224.16;5070938;28;20200;-60
2021/04/28 03:45:57;;;;;;;1999.90;999.90;;;;;;;8.91;97.16;95220.03;5070846;28;20207;-60
2021/04/28 03:48:25;;;;;;;1999.90;999.90;;;;;;;8.97;97.00;95223.28;5070564;28;20624;-60
2021/04/28 03:50:52;;;;;;;1999.90;999.90;;;;;;;9.05;96.81;95225.22;5070669;28;20196;-61
2021/04/28 03:53:19;;;;;;;1999.90;999.90;;;;;;;9.17;96.25;95225.47;5071352;28;20231;-60
2021/04/28 03:55:47;;;;;;;1999.90;999.90;;;;;;;9.17;95.81;95225.47;5070880;28;20207;-60
2021/04/28 03:58:15;;;;;;;1999.90;999.90;;;;;;;9.17;96.24;95233.25;5070612;28;20287;-61
2021/04/28 04:00:42;;;;;;;1999.90;999.90;;;;;;;9.17;97.28;95220.28;5070341;28;20235;-62
2021/04/28 04:03:09;;;;;;;1999.90;999.90;;;;;;;9.19;97.33;95225.97;5070062;28;21003;-61
2021/04/28 04:05:36;;;;;;;1999.90;999.90;;;;;;;9.26;97.17;95233.34;5070338;28;20252;-60
2021/04/28 04:08:02;;;;;;;1999.90;999.90;;;;;;;9.28;97.25;95226.81;5069733;28;20247;-61
2021/04/28 04:10:30;;;;;;;1999.90;999.90;;;;;;;9.41;97.10;95236.38;5070372;28;20276;-60
2021/04/28 04:12:57;;;;;;;1999.90;999.90;;;;;;;9.49;96.62;95248.66;5070183;28;20232;-60
2021/04/28 04:15:25;;;;;;;1999.90;999.90;;;;;;;9.61;96.44;95247.41;5070588;28;20204;-59
2021/04/28 04:17:51;;;;;;;1999.90;999.90;;;;;;;9.70;95.97;95259.38;5070158;28;20687;-60
2021/04/28 04:20:18;;;;;;;1999.90;999.90;;;;;;;9.79;95.79;95259.44;5068840;28;20552;-61
2021/04/28 04:22:45;;;;;;;1999.90;999.90;;;;;;;9.96;95.23;95266.59;5070305;28;20287;-60
2021/04/28 04:25:12;;;;;;;1999.90;999.90;;;;;;;10.09;94.84;95263.94;5070284;28;20301;-61
2021/04/28 04:27:40;;;;;;;1999.90;999.90;;;;;;;10.26;94.38;95263.34;5069862;28;20229;-63
2021/04/28 04:30:09;;;;;;;1999.90;999.90;;;;;;;10.45;93.08;95261.31;5069895;28;20203;-61
2021/04/28 04:32:37;;;;;;;1999.90;999.90;;;;;;;10.65;93.14;95273.03;5069915;28;20188;-62
2021/04/28 04:35:04;;;;;;;1999.90;999.90;;;;;;;10.83;92.45;95274.63;5070264;28;20239;-62
2021/04/28 04:37:31;;;;;;;1999.90;999.90;;;;;;;10.97;91.28;95267.50;5069953;28;20814;-62
2021/04/28 04:39:58;;;;;;;1999.90;999.90;;;;;;;11.12;89.84;95269.69;5069917;28;20239;-62
2021/04/28 04:42:26;;;;;;;1999.90;999.90;;;;;;;11.39;88.47;95273.13;5069835;28;20188;-62
2021/04/28 04:44:53;;;;;;;1999.90;999.90;;;;;;;11.68;86.27;95273.31;5070081;28;20200;-61
2021/04/28 04:47:19;;;;;;;1999.90;999.90;;;;;;;12.02;85.19;95275.97;5069789;28;20198;-61
2021/04/28 04:49:47;;;;;;;1999.90;999.90;;;;;;;12.12;83.11;95280.09;5070090;28;20189;-62
2021/04/28 04:52:14;;;;;;;1999.90;999.90;;;;;;;12.31;81.25;95292.78;5069950;28;20527;-62
2021/04/28 04:54:41;;;;;;;1999.90;999.90;;;;;;;12.27;81.81;95294.50;5069743;28;20197;-61
2021/04/28 04:57:08;;;;;;;1999.90;999.90;;;;;;;12.55;82.02;95303.50;5069789;28;20591;-64
2021/04/28 04:59:35;;;;;;;1999.90;999.90;;;;;;;12.75;80.01;95304.69;5069794;28;20267;-62
2021/04/28 05:02:01;;;;;;;1999.90;999.90;;;;;;;12.75;79.79;95302.81;5069964;28;20238;-63
2021/04/28 05:04:29;;;;;;;1999.90;999.90;;;;;;;12.80;80.43;95300.06;5069700;28;20253;-61
2021/04/28 05:06:56;;;;;;;1999.90;999.90;;;;;;;12.73;80.05;95289.34;5069496;28;20276;-62
2021/04/28 05:09:23;;;;;;;1999.90;999.90;;;;;;;12.84;80.31;95282.72;5069573;28;20197;-62
2021/04/28 05:11:50;;;;;;;1999.90;999.90;;;;;;;12.89;79.43;95279.94;5069350;28;20216;-61
2021/04/28 05:14:17;;;;;;;1999.90;999.90;;;;;;;13.03;78.81;95265.94;5069470;28;20285;-62
2021/04/28 05:16:44;;;;;;;1999.90;999.90;;;;;;;13.21;78.55;95275.22;5069672;28;20246;-63
2021/04/28 05:19:11;;;;;;;1999.90;999.90;;;;;;;13.40;78.93;95282.66;5069823;28;20234;-63
2021/04/28 05:21:38;;;;;;;1999.90;999.90;;;;;;;13.62;76.06;95290.97;5073808;28;20252;-62
2021/04/28 05:24:07;;;;;;;1999.90;999.90;;;;;;;13.80;73.84;95289.00;5073465;28;20329;-62
2021/04/28 05:26:33;;;;;;;1999.90;999.90;;;;;;;13.93;72.89;95295.84;5073491;28;20304;-62
2021/04/28 05:29:00;;;;;;;1999.90;999.90;;;;;;;14.07;72.44;95306.03;5073317;28;20199;-62
2021/04/28 05:31:27;;;;;;;1999.90;999.90;;;;;;;14.18;70.81;95309.78;5073504;28;20201;-62
2021/04/28 05:33:54;;;;;;;1999.90;999.90;;;;;;;14.08;71.45;95305.72;5072974;28;20192;-63
2021/04/28 05:36:21;;;;;;;1999.90;999.90;;;;;;;14.19;72.89;95300.88;5073307;28;20232;-64
2021/04/28 05:38:48;;;;;;;1999.90;999.90;;;;;;;14.24;70.03;95303.28;5073099;28;20253;-62
2021/04/28 05:41:16;;;;;;;1999.90;999.90;;;;;;;14.17;70.46;95295.19;5072919;28;20311;-62
2021/04/28 05:43:43;;;;;;;1999.90;999.90;;;;;;;14.28;68.97;95283.25;5072869;28;20269;-63
2021/04/28 05:46:10;;;;;;;1999.90;999.90;;;;;;;14.32;67.22;95283.38;5072947;28;20201;-62
2021/04/28 05:48:37;;;;;;;1999.90;999.90;;;;;;;14.20;66.76;95265.78;5073193;28;20215;-63
2021/04/28 05:51:07;;;;;;;1999.90;999.90;;;;;;;14.24;69.52;95258.84;5073173;28;20189;-63
2021/04/28 05:53:34;;;;;;;1999.90;999.90;;;;;;;14.37;67.81;95273.50;5072756;28;20197;-62
2021/04/28 05:56:03;;;;;;;1999.90;999.90;;;;;;;14.23;68.30;95262.53;5072773;28;20193;-63
2021/04/28 05:58:31;;;;;;;1999.90;999.90;;;;;;;14.54;66.95;95260.28;5072615;28;20255;-62
2021/04/28 06:00:58;;;;;;;1999.90;999.90;;;;;;;14.58;65.62;95253.31;5072648;28;20227;-63
2021/04/28 06:03:25;;;;;;;1999.90;999.90;;;;;;;14.62;64.45;95251.56;5072737;28;20196;-64
2021/04/28 06:05:52;;;;;;;1999.90;999.90;;;;;;;14.78;65.23;95256.94;5072734;28;20299;-62
2021/04/28 06:08:19;;;;;;;1999.90;999.90;;;;;;;14.83;65.05;95263.81;5072706;28;20211;-63
2021/04/28 06:10:46;;;;;;;1999.90;999.90;;;;;;;14.70;64.13;95288.41;5072751;28;20201;-63
2021/04/28 06:13:13;;;;;;;1999.90;999.90;;;;;;;14.73;61.90;95291.16;5072263;28;20288;-61
2021/04/28 06:15:41;;;;;;;1999.90;999.90;;;;;;;14.86;62.49;95295.31;5072730;28;20275;-62
2021/04/28 06:18:08;;;;;;;1999.90;999.90;;;;;;;14.90;60.84;95284.97;5072483;28;20204;-63
2021/04/28 06:20:35;;;;;;;1999.90;999.90;;;;;;;15.15;62.63;95293.59;5072211;28;20228;-62
2021/04/28 06:23:02;;;;;;;1999.90;999.90;;;;;;;15.25;61.77;95296.56;5072462;28;20210;-63
2021/04/28 06:25:29;;;;;;;1999.90;999.90;;;;;;;15.36;60.80;95286.41;5072260;28;20229;-62
2021/04/28 06:27:56;;;;;;;1999.90;999.90;;;;;;;15.33;60.87;95287.84;5072114;28;20197;-61
2021/04/28 06:30:23;;;;;;;1999.90;999.90;;;;;;;15.43;59.28;95287.41;5071414;28;20196;-61
2021/04/28 06:32:51;;;;;;;1999.90;999.90;;;;;;;15.40;60.33;95290.66;5071565;28;20203;-60
2021/04/28 06:35:18;;;;;;;1999.90;999.90;;;;;;;15.47;60.68;95293.50;5072256;28;20254;-62
2021/04/28 06:37:45;;;;;;;1999.90;999.90;;;;;;;15.37;62.61;95301.03;5072039;28;20188;-62
2021/04/28 06:40:13;;;;;;;1999.90;999.90;;;;;;;15.44;60.19;95298.63;5072200;28;20361;-62
2021/04/28 06:42:41;;;;;;;1999.90;999.90;;;;;;;15.61;61.32;95303.66;5071990;28;20195;-63
2021/04/28 06:45:11;;;;;;;1999.90;999.90;;;;;;;15.88;63.56;95296.97;5072173;28;20206;-62
2021/04/28 06:47:38;;;;;;;1999.90;999.90;;;;;;;15.96;63.15;95303.94;5071964;28;20243;-63
2021/04/28 06:50:09;;;;;;;1999.90;999.90;;;;;;;16.19;63.58;95310.19;5071769;28;20275;-64
2021/04/28 06:52:36;;;;;;;1999.90;999.90;;;;;;;16.43;60.92;95314.59;5072325;28;20189;-64
2021/04/28 06:55:03;;;;;;;1999.90;999.90;;;;;;;16.51;61.46;95320.78;5071576;28;20701;-63
2021/04/28 06:57:30;;;;;;;1999.90;999.90;;;;;;;16.29;60.53;95319.44;5071817;28;20606;-63
2021/04/28 06:59:58;;;;;;;1999.90;999.90;;;;;;;16.42;60.00;95310.44;5071611;28;20229;-64
2021/04/28 07:02:25;;;;;;;1999.90;999.90;;;;;;;16.62;61.45;95308.75;5071784;28;20236;-63
2021/04/28 07:04:51;;;;;;;1999.90;999.90;;;;;;;16.72;61.18;95313.50;5071493;28;20189;-63
2021/04/28 07:07:19;;;;;;;1999.90;999.90;;;;;;;16.66;60.40;95310.38;5071473;28;20205;-63
2021/04/28 07:09:46;;;;;;;1999.90;999.90;;;;;;;16.47;61.11;95312.84;5071443;28;20234;-63
2021/04/28 07:12:13;;;;;;;1999.90;999.90;;;;;;;16.52;62.26;95309.97;5071434;28;20232;-63
2021/04/28 07:14:39;;;;;;;1999.90;999.90;;;;;;;16.66;61.79;95314.84;5071539;28;20240;-64
2021/04/28 07:17:08;;;;;;;1999.90;999.90;;;;;;;16.77;59.71;95310.66;5071595;28;20281;-64
2021/04/28 07:19:35;;;;;;;1999.90;999.90;;;;;;;16.60;60.54;95311.69;5071214;28;20285;-64
2021/04/28 07:22:02;;;;;;;1999.90;999.90;;;;;;;16.72;61.96;95313.50;5071477;28;20291;-64
2021/04/28 07:24:30;;;;;;;1999.90;999.90;;;;;;;16.80;59.34;95323.09;5071167;28;20303;-63
2021/04/28 07:26:56;;;;;;;1999.90;999.90;;;;;;;16.71;61.84;95318.00;5071030;28;20279;-63
2021/04/28 07:29:23;;;;;;;1999.90;999.90;;;;;;;16.98;61.76;95315.66;5071053;28;20287;-62
2021/04/28 07:31:50;;;;;;;1999.90;999.90;;;;;;;16.93;58.53;95313.28;5070858;28;20189;-62
2021/04/28 07:34:17;;;;;;;1999.90;999.90;;;;;;;16.91;61.64;95308.38;5070980;28;20196;-64
2021/04/28 07:36:45;;;;;;;1999.90;999.90;;;;;;;17.30;63.80;95305.91;5071137;28;20560;-63
2021/04/28 07:39:12;;;;;;;1999.90;999.90;;;;;;;17.44;61.79;95304.38;5071075;28;20424;-64
2021/04/28 07:41:41;;;;;;;1999.90;999.90;;;;;;;17.32;59.70;95309.75;5070732;28;20248;-62
2021/04/28 07:44:08;;;;;;;1999.90;999.90;;;;;;;17.36;59.49;95305.31;5070847;28;20207;-63
2021/04/28 07:46:35;;;;;;;1999.90;999.90;;;;;;;17.49;58.66;95309.38;5070828;28;20197;-63
2021/04/28 07:49:04;;;;;;;1999.90;999.90;;;;;;;17.62;59.05;95300.31;5070702;28;20266;-64
2021/04/28 07:51:31;;;;;;;1999.90;999.90;;;;;;;17.60;58.56;95299.13;5071076;28;20195;-64
2021/04/28 07:53:58;;;;;;;1999.90;999.90;;;;;;;17.66;56.28;95297.00;5070857;28;20204;-63
2021/04/28 07:56:25;;;;;;;1999.90;999.90;;;;;;;17.71;59.04;95296.75;5070627;28;20193;-64
2021/04/28 07:58:53;;;;;;;1999.90;999.90;;;;;;;17.69;57.92;95293.69;5070408;28;20199;-63
2021/04/28 08:01:19;;;;;;;1999.90;999.90;;;;;;;17.86;56.23;95296.69;5070532;28;20329;-63
2021/04/28 08:03:46;;;;;;;1999.90;999.90;;;;;;;18.06;57.65;95287.72;5070398;28;20192;-63
2021/04/28 08:06:14;;;;;;;1999.90;999.90;;;;;;;18.12;55.10;95288.22;5070119;28;20257;-62
2021/04/28 08:08:40;;;;;;;1999.90;999.90;;;;;;;18.37;56.13;95280.81;5070254;28;20196;-64
2021/04/28 08:11:07;;;;;;;1999.90;999.90;;;;;;;18.57;56.28;95286.84;5070465;28;20199;-63
2021/04/28 08:13:34;;;;;;;1999.90;999.90;;;;;;;18.35;53.55;95270.63;5070049;28;20237;-62
2021/04/28 08:16:02;;;;;;;1999.90;999.90;;;;;;;18.21;53.95;95280.88;5070218;28;20663;-63
2021/04/28 08:18:28;;;;;;;1999.90;999.90;;;;;;;18.24;56.21;95274.91;5070612;28;20200;-62
2021/04/28 08:20:56;;;;;;;1999.90;999.90;;;;;;;18.37;56.33;95276.31;5070107;28;20319;-63
2021/04/28 08:23:29;;;;;;;1999.90;999.90;;;;;;;18.59;53.84;95285.38;5070189;28;20208;-63
2021/04/28 08:25:57;;;;;;;1999.90;999.90;;;;;;;18.61;52.99;95283.16;5070295;28;20196;-63
2021/04/28 08:28:24;;;;;;;1999.90;999.90;;;;;;;18.81;52.98;95281.25;5070381;28;20310;-62
2021/04/28 08:30:51;;;;;;;1999.90;999.90;;;;;;;18.75;55.76;95278.13;5070551;28;20212;-63
2021/04/28 08:33:18;;;;;;;1999.90;999.90;;;;;;;18.57;52.72;95274.44;5070058;28;20203;-62
2021/04/28 08:35:45;;;;;;;1999.90;999.90;;;;;;;18.73;54.73;95274.34;5070094;28;20200;-62
2021/04/28 08:38:12;;;;;;;1999.90;999.90;;;;;;;18.96;55.03;95261.94;5070051;28;20199;-64
2021/04/28 08:40:39;;;;;;;1999.90;999.90;;;;;;;18.97;51.10;95263.47;5069897;28;20244;-63
2021/04/28 08:43:06;;;;;;;1999.90;999.90;;;;;;;19.15;52.35;95259.22;5070215;28;20648;-63
2021/04/28 08:45:33;;;;;;;1999.90;999.90;;;;;;;19.12;54.04;95254.69;5069919;28;20224;-62
2021/04/28 08:48:00;;;;;;;1999.90;999.90;;;;;;;19.27;51.14;95261.69;5069911;28;20196;-62
2021/04/28 08:50:28;;;;;;;1999.90;999.90;;;;;;;19.33;49.04;95257.59;5069826;28;20193;-63
2021/04/28 08:52:55;;;;;;;1999.90;999.90;;;;;;;19.30;54.80;95257.56;5069747;28;20192;-63
2021/04/28 08:55:22;;;;;;;1999.90;999.90;;;;;;;19.51;51.18;95265.81;5072580;28;20197;-62
2021/04/28 08:57:49;;;;;;;1999.90;999.90;;;;;;;19.55;52.79;95260.59;5074040;28;20292;-63
2021/04/28 09:00:18;;;;;;;1999.90;999.90;;;;;;;19.44;51.28;95264.91;5074238;28;20262;-63
2021/04/28 09:02:54;;;;;;;1999.90;999.90;;;;;;;19.47;51.28;95258.97;5073884;28;20196;-64
2021/04/28 09:05:22;;;;;;;1999.90;999.90;;;;;;;19.39;51.98;95258.06;5073891;28;20287;-64
2021/04/28 09:07:50;;;;;;;1999.90;999.90;;;;;;;19.56;52.67;95248.94;5073712;28;20216;-63
2021/04/28 09:10:19;;;;;;;1999.90;999.90;;;;;;;19.65;50.58;95259.97;5073705;28;20197;-62
2021/04/28 09:12:54;;;;;;;1999.90;999.90;;;;;;;19.74;51.80;95236.72;5073564;28;20315;-62
2021/04/28 09:15:36;;;;;;;1999.90;999.90;;;;;;;19.68;52.69;95254.75;5073630;28;20245;-63
2021/04/28 09:18:04;;;;;;;1999.90;999.90;;;;;;;19.82;51.22;95246.28;5073674;28;20341;-63
2021/04/28 09:20:34;;;;;;;1999.90;999.90;;;;;;;20.02;52.05;95249.53;5073715;28;20760;-62
2021/04/28 09:23:11;;;;;;;1999.90;999.90;;;;;;;20.10;50.25;95254.53;5073705;28;20189;-62
2021/04/28 09:25:42;;;;;;;1999.90;999.90;;;;;;;19.86;50.04;95239.16;5073439;28;20192;-63
2021/04/28 09:28:21;;;;;;;1999.90;999.90;;;;;;;20.03;47.90;95241.22;5073595;28;20363;-61
2021/04/28 09:30:48;;;;;;;1999.90;999.90;;;;;;;20.09;48.36;95239.03;5073264;28;20628;-63
2021/04/28 09:33:16;;;;;;;1999.90;999.90;;;;;;;20.15;50.46;95234.97;5073876;28;20641;-63
2021/04/28 09:35:43;;;;;;;1999.90;999.90;;;;;;;20.38;49.78;95237.50;5073248;28;20200;-63
2021/04/28 09:38:12;;;;;;;1999.90;999.90;;;;;;;20.38;50.98;95227.69;5073156;28;20188;-62
2021/04/28 09:40:43;;;;;;;1999.90;999.90;;;;;;;20.35;49.82;95222.38;5073081;28;20239;-63
2021/04/28 09:43:12;;;;;;;1999.90;999.90;;;;;;;20.41;49.81;95211.16;5072817;28;20230;-63
2021/04/28 09:45:42;;;;;;;1999.90;999.90;;;;;;;20.47;49.56;95224.78;5073109;28;20602;-63
2021/04/28 09:48:18;;;;;;;1999.90;999.90;;;;;;;20.39;47.26;95210.75;5072809;28;20193;-62
2021/04/28 09:50:45;;;;;;;1999.90;999.90;;;;;;;20.34;50.02;95216.34;5072956;28;20324;-63
2021/04/28 09:53:24;;;;;;;1999.90;999.90;;;;;;;20.58;48.71;95207.91;5073135;28;20201;-63
2021/04/28 09:55:51;;;;;;;1999.90;999.90;;;;;;;20.60;50.55;95208.31;5072891;28;20215;-63
2021/04/28 09:58:18;;;;;;;1999.90;999.90;;;;;;;20.79;46.30;95207.34;5073077;28;20543;-63
2021/04/28 10:00:59;;;;;;;1999.90;999.90;;;;;;;20.39;47.59;95207.34;5073144;28;20256;-63
2021/04/28 10:03:44;;;;;;;1999.90;999.90;;;;;;;20.42;46.91;95194.16;5072780;28;20253;-63
2021/04/28 10:06:11;;;;;;;1999.90;999.90;;;;;;;20.74;50.26;95197.09;5072545;28;20245;-63
2021/04/28 10:08:39;;;;;;;1999.90;999.90;;;;;;;20.91;47.21;95198.38;5072497;28;20199;-63
2021/04/28 10:11:06;;;;;;;1999.90;999.90;;;;;;;21.03;48.82;95192.78;5072453;28;20199;-63
2021/04/28 10:13:35;;;;;;;1999.90;999.90;;;;;;;21.00;48.69;95188.25;5072493;28;20228;-62
2021/04/28 10:16:03;;;;;;;1999.90;999.90;;;;;;;21.13;46.20;95186.06;5072754;28;20303;-63
2021/04/28 10:18:33;;;;;;;1999.90;999.90;;;;;;;21.02;48.91;95180.72;5072626;28;20228;-63
2021/04/28 10:21:01;;;;;;;1999.90;999.90;;;;;;;21.10;46.65;95177.00;5072675;28;20374;-63
2021/04/28 10:23:29;;;;;;;1999.90;999.90;;;;;;;21.05;48.69;95186.03;5072350;28;20667;-62
2021/04/28 10:25:57;;;;;;;1999.90;999.90;;;;;;;21.39;48.80;95173.41;5072518;28;20280;-63
2021/04/28 10:28:24;;;;;;;1999.90;999.90;;;;;;;21.50;44.80;95170.06;5072510;28;20283;-63
2021/04/28 10:30:51;;;;;;;1999.90;999.90;;;;;;;21.65;44.92;95164.47;5072321;28;20192;-62
2021/04/28 10:33:22;;;;;;;1999.90;999.90;;;;;;;21.92;47.11;95159.66;5072159;28;20748;-63
2021/04/28 10:35:50;;;;;;;1999.90;999.90;;;;;;;21.70;46.76;95160.72;5072190;28;20281;-62
2021/04/28 10:38:22;;;;;;;1999.90;999.90;;;;;;;21.81;48.00;95162.28;5072000;28;20196;-63
2021/04/28 10:40:48;;;;;;;1999.90;999.90;;;;;;;21.72;43.96;95159.22;5072010;28;20235;-63
2021/04/28 10:43:18;;;;;;;1999.90;999.90;;;;;;;21.93;44.73;95169.13;5072059;28;20235;-63
2021/04/28 10:45:45;;;;;;;1999.90;999.90;;;;;;;22.13;46.79;95166.94;5071925;28;20271;-62
2021/04/28 10:48:18;;;;;;;1999.90;999.90;;;;;;;21.82;46.41;95163.78;5072191;28;20196;-63
2021/04/28 10:50:46;;;;;;;1999.90;999.90;;;;;;;22.07;44.30;95155.19;5071824;28;20577;-63
2021/04/28 10:53:23;;;;;;;1999.90;999.90;;;;;;;22.21;44.32;95157.88;5071818;28;20199;-63
2021/04/28 10:55:55;;;;;;;1999.90;999.90;;;;;;;22.36;45.45;95148.06;5072116;28;20200;-64
2021/04/28 10:58:40;;;;;;;1999.90;999.90;;;;;;;22.13;45.12;95138.56;5071916;28;20200;-63
2021/04/28 11:01:18;;;;;;;1999.90;999.90;;;;;;;22.21;47.75;95136.72;5072005;28;20236;-63
2021/04/28 11:03:48;;;;;;;1999.90;999.90;;;;;;;22.22;46.91;95138.19;5071694;28;20199;-63